Terminal Aerodrome Forecast
Issued by NWS

Home | Current Version | Previous Version | Text Only | Print | Product List | Glossary On
Versions: 1 2 3 4 5 6 7 8 9 10 11 12 13 14 15 16 17 18 19
000
FTUS44 KCRP 191200 CCA
TAFLRD
TAF COR
KLRD 191209Z 1912/2012 36007KT 4SM BR OVC003
      TEMPO 1912/1913 2SM -RA BR OVC003
     FM191400 34010KT 5SM BR OVC007
     FM191900 36009KT P6SM SCT025 BKN040
     FM201000 04005KT 3SM BR OVC003=

USA.gov is the U.S. government's official web portal to all federal, state and local government web resources and services.